createdAt,value
2023-05-10T00:00:19.796Z,100933.91
2023-05-10T00:02:48.702Z,100937.38
2023-05-10T00:05:18.305Z,100934.75
2023-05-10T00:07:46.012Z,100925.84
2023-05-10T00:10:15.705Z,100922.84
2023-05-10T00:12:46.415Z,100928.13
2023-05-10T00:15:21.112Z,100922.84
2023-05-10T00:17:47.503Z,100926.94
2023-05-10T00:20:19.396Z,100924.16
2023-05-10T00:22:49.057Z,100927.41
2023-05-10T00:25:22.015Z,100924.97
2023-05-10T00:27:51.404Z,100922.16
2023-05-10T00:30:24.999Z,100923.81
2023-05-10T00:32:54.194Z,100915.06
2023-05-10T00:35:21.354Z,100912.25
2023-05-10T00:37:48.552Z,100923.97
2023-05-10T00:40:18.318Z,100919.84
2023-05-10T00:42:44.955Z,100925.13
2023-05-10T00:45:14.143Z,100922.66
2023-05-10T00:47:40.664Z,100923.66
2023-05-10T00:50:07.977Z,100919.41
2023-05-10T00:52:36.951Z,100920.03
2023-05-10T00:55:07.304Z,100915.75
2023-05-10T00:57:36.185Z,100921.41
2023-05-10T01:00:10.944Z,100924.22
2023-05-10T01:02:52.587Z,100924.22
2023-05-10T01:05:22.216Z,100919.94
2023-05-10T01:07:51.372Z,100927.38
2023-05-10T01:10:18.254Z,100920.28
2023-05-10T01:12:57.146Z,100921.94
2023-05-10T01:18:08.058Z,100929.84
2023-05-10T01:20:42.636Z,100922.91
2023-05-10T01:23:21.240Z,100923.75
2023-05-10T01:26:02.627Z,100929.84
2023-05-10T01:28:57.349Z,100926.00
2023-05-10T01:32:08.633Z,100925.22
2023-05-10T01:35:12.896Z,100920.56
2023-05-10T01:38:08.615Z,100920.38
2023-05-10T01:41:19.648Z,100920.09
2023-05-10T01:44:21.321Z,100925.72
2023-05-10T01:46:58.072Z,100932.00
2023-05-10T01:49:28.359Z,100930.56
2023-05-10T01:55:18.051Z,100931.53
2023-05-10T01:57:49.899Z,100926.28
2023-05-10T02:00:19.420Z,100922.66
2023-05-10T02:02:48.613Z,100928.53
2023-05-10T02:05:17.659Z,100924.47
2023-05-10T02:07:48.238Z,100924.28
2023-05-10T02:10:21.284Z,100928.38
2023-05-10T02:12:49.401Z,100933.00
2023-05-10T02:15:23.767Z,100935.28
2023-05-10T02:17:56.491Z,100926.19
2023-05-10T02:20:27.078Z,100943.31
2023-05-10T02:22:55.899Z,100928.84
2023-05-10T02:25:30.207Z,100941.03
2023-05-10T02:27:58.699Z,100930.31
2023-05-10T02:33:34.994Z,100944.63
2023-05-10T02:36:03.547Z,100942.00
2023-05-10T02:38:37.791Z,100945.28
2023-05-10T02:41:05.742Z,100943.66
2023-05-10T02:43:37.063Z,100948.47
2023-05-10T02:46:06.858Z,100951.09
2023-05-10T02:48:33.428Z,100959.00
2023-05-10T02:51:09.961Z,100955.34
2023-05-10T02:56:37.157Z,100957.88
2023-05-10T02:59:06.645Z,100949.19
2023-05-10T03:01:35.991Z,100952.31
2023-05-10T03:04:02.430Z,100957.94
2023-05-10T03:06:40.292Z,100964.47
2023-05-10T03:09:12.231Z,100965.81
2023-05-10T03:12:22.049Z,100963.06
2023-05-10T03:15:17.164Z,100970.84
2023-05-10T03:18:10.659Z,100967.09
2023-05-10T03:20:45.288Z,100959.75
2023-05-10T03:23:28.483Z,100980.16
2023-05-10T03:25:55.639Z,100972.59
2023-05-10T03:28:22.957Z,100980.66
2023-05-10T03:30:53.763Z,100981.03
2023-05-10T03:33:23.327Z,100984.31
2023-05-10T03:35:49.756Z,100983.50
2023-05-10T03:38:16.166Z,100985.81
2023-05-10T03:40:42.597Z,100978.22
2023-05-10T03:43:09.376Z,100982.66
2023-05-10T03:45:38.270Z,100971.28
2023-05-10T03:48:05.158Z,100970.31
2023-05-10T03:50:35.890Z,100974.41
2023-05-10T03:53:05.269Z,100971.59
2023-05-10T03:55:38.643Z,100978.31
2023-05-10T03:58:11.877Z,100981.59
2023-05-10T04:00:50.178Z,100975.53
2023-05-10T04:06:12.743Z,100982.78
2023-05-10T04:08:47.331Z,100983.56
2023-05-10T04:11:14.618Z,100991.94
2023-05-10T04:13:41.052Z,100977.81
2023-05-10T04:16:11.859Z,100993.09
2023-05-10T04:18:38.221Z,100988.00
2023-05-10T04:21:04.617Z,100991.94
2023-05-10T04:23:36.070Z,100989.66
2023-05-10T04:26:03.003Z,100988.53
2023-05-10T04:28:29.814Z,100988.34
2023-05-10T04:31:06.783Z,100981.25
2023-05-10T04:33:37.003Z,100989.16
2023-05-10T04:36:06.371Z,100995.41
2023-05-10T04:38:32.734Z,100988.34
2023-05-10T04:41:12.306Z,100983.69
2023-05-10T04:43:40.020Z,100977.63
2023-05-10T04:46:08.001Z,100988.44
2023-05-10T04:48:34.672Z,100988.78
2023-05-10T04:51:01.160Z,100996.69
2023-05-10T04:53:28.916Z,101005.25
2023-05-10T04:55:59.122Z,101002.59
2023-05-10T04:58:25.890Z,101000.81
2023-05-10T05:01:01.819Z,101010.28
2023-05-10T05:03:28.321Z,101004.50
2023-05-10T05:05:58.004Z,101005.50
2023-05-10T05:08:27.260Z,101006.78
2023-05-10T05:10:55.815Z,101013.97
2023-05-10T05:13:28.798Z,101013.63
2023-05-10T05:15:55.620Z,101015.16
2023-05-10T05:18:30.786Z,101014.13
2023-05-10T05:20:57.355Z,101019.88
2023-05-10T05:23:28.575Z,101022.03
2023-05-10T05:25:55.308Z,101021.41
2023-05-10T05:28:21.940Z,101021.25
2023-05-10T05:30:50.953Z,101022.88
2023-05-10T05:33:20.094Z,101028.63
2023-05-10T05:35:53.575Z,101031.25
2023-05-10T05:38:23.086Z,101031.53
2023-05-10T05:40:49.733Z,101035.63
2023-05-10T05:43:19.291Z,101032.81
2023-05-10T05:45:48.615Z,101033.19
2023-05-10T05:48:19.208Z,101036.78
2023-05-10T05:50:50.090Z,101042.88
2023-05-10T05:53:16.766Z,101045.88
2023-05-10T05:55:54.287Z,101045.41
2023-05-10T05:58:24.305Z,101049.38
2023-05-10T06:00:55.127Z,101047.22
2023-05-10T06:03:21.607Z,101052.31
2023-05-10T06:05:56.458Z,101056.09
2023-05-10T06:08:23.382Z,101058.28
2023-05-10T06:10:52.474Z,101062.56
2023-05-10T06:13:22.243Z,101064.53
2023-05-10T06:15:48.690Z,101071.56
2023-05-10T06:18:27.906Z,101073.56
2023-05-10T06:20:54.577Z,101068.47
2023-05-10T06:23:21.232Z,101077.16
2023-05-10T06:25:50.497Z,101080.63
2023-05-10T06:28:19.908Z,101079.34
2023-05-10T06:30:46.245Z,101071.91
2023-05-10T06:33:12.845Z,101070.72
2023-05-10T06:35:39.844Z,101071.16
2023-05-10T06:38:09.498Z,101072.63
2023-05-10T06:40:42.599Z,101077.91
2023-05-10T06:43:12.837Z,101079.00
2023-05-10T06:45:39.337Z,101083.91
2023-05-10T06:48:06.119Z,101084.09
2023-05-10T06:50:40.873Z,101090.72
2023-05-10T06:53:07.374Z,101094.63
2023-05-10T06:55:36.048Z,101099.09
2023-05-10T06:58:05.930Z,101093.66
2023-05-10T07:00:32.504Z,101095.66
2023-05-10T07:03:03.082Z,101097.41
2023-05-10T07:05:32.870Z,101094.75
2023-05-10T07:08:07.223Z,101097.66
2023-05-10T07:10:34.019Z,101106.09
2023-05-10T07:13:01.334Z,101110.38
2023-05-10T07:15:31.031Z,101106.38
2023-05-10T07:17:57.585Z,101108.56
2023-05-10T07:20:24.121Z,101110.66
2023-05-10T07:22:58.855Z,101110.03
2023-05-10T07:25:25.408Z,101108.66
2023-05-10T07:27:52.245Z,101109.47
2023-05-10T07:30:25.090Z,101116.56
2023-05-10T07:32:51.530Z,101119.66
2023-05-10T07:35:27.379Z,101120.31
2023-05-10T07:37:53.830Z,101130.69
2023-05-10T07:40:23.313Z,101125.06
2023-05-10T07:42:52.910Z,101131.44
2023-05-10T07:45:19.501Z,101136.09
2023-05-10T07:47:49.100Z,101127.59
2023-05-10T07:50:15.739Z,101130.16
2023-05-10T07:52:45.070Z,101139.63
2023-05-10T07:55:18.031Z,101142.00
2023-05-10T07:57:44.729Z,101142.66
2023-05-10T08:00:23.367Z,101144.28
2023-05-10T08:03:02.702Z,101144.47
2023-05-10T08:05:29.120Z,101154.84
2023-05-10T08:10:42.570Z,101153.69
2023-05-10T08:13:12.705Z,101154.03
2023-05-10T08:15:44.291Z,101157.47
2023-05-10T08:18:10.892Z,101160.03
2023-05-10T08:20:37.255Z,101161.88
2023-05-10T08:23:08.163Z,101165.84
2023-05-10T08:25:34.492Z,101164.41
2023-05-10T08:28:00.960Z,101161.31
2023-05-10T08:30:40.534Z,101160.13
2023-05-10T08:33:13.425Z,101165.25
2023-05-10T08:35:43.004Z,101174.53
2023-05-10T08:38:13.308Z,101173.72
2023-05-10T08:40:43.158Z,101182.00
2023-05-10T08:43:19.448Z,101182.09
2023-05-10T08:45:48.944Z,101184.97
2023-05-10T08:51:04.644Z,101191.63
2023-05-10T08:53:40.475Z,101196.38
2023-05-10T08:56:07.713Z,101197.19
2023-05-10T08:58:38.769Z,101204.94
2023-05-10T09:01:09.481Z,101204.84
2023-05-10T09:03:36.345Z,101203.25
2023-05-10T09:06:02.879Z,101204.72
2023-05-10T09:08:33.649Z,101194.69
2023-05-10T09:11:02.448Z,101195.72
2023-05-10T09:13:31.980Z,101198.75
2023-05-10T09:16:09.798Z,101195.13
2023-05-10T09:18:42.685Z,101195.38
2023-05-10T09:21:10.817Z,101204.25
2023-05-10T09:23:48.670Z,101199.91
2023-05-10T09:26:22.589Z,101204.88
2023-05-10T09:28:53.200Z,101203.19
2023-05-10T09:31:22.073Z,101202.97
2023-05-10T09:33:54.785Z,101205.56
2023-05-10T09:36:23.630Z,101210.56
2023-05-10T09:38:56.171Z,101208.53
2023-05-10T09:41:26.164Z,101217.50
2023-05-10T09:43:58.462Z,101222.00
2023-05-10T09:46:25.070Z,101222.25
2023-05-10T09:49:04.470Z,101219.63
2023-05-10T09:51:30.955Z,101220.88
2023-05-10T09:54:19.759Z,101228.75
2023-05-10T09:56:46.248Z,101224.06
2023-05-10T09:59:13.470Z,101231.53
2023-05-10T10:01:52.552Z,101230.19
2023-05-10T10:04:25.017Z,101240.25
2023-05-10T10:07:12.080Z,101242.31
2023-05-10T10:09:41.691Z,101238.22
2023-05-10T10:12:14.200Z,101241.22
2023-05-10T10:14:40.802Z,101246.97
2023-05-10T10:17:11.157Z,101249.66
2023-05-10T10:19:40.498Z,101241.13
2023-05-10T10:22:12.013Z,101251.00
2023-05-10T10:24:41.693Z,101245.78
2023-05-10T10:27:32.994Z,101242.22
2023-05-10T10:30:25.782Z,101252.06
2023-05-10T10:33:37.262Z,101250.38
2023-05-10T10:36:08.673Z,101249.69
2023-05-10T10:39:02.196Z,101255.56
2023-05-10T10:41:55.791Z,101261.59
2023-05-10T10:44:35.943Z,101254.88
2023-05-10T10:47:25.917Z,101256.94
2023-05-10T10:49:58.784Z,101263.25
2023-05-10T10:52:38.011Z,101252.66
2023-05-10T10:55:12.910Z,101257.56
2023-05-10T10:57:42.154Z,101254.81
2023-05-10T11:00:34.504Z,101258.53
2023-05-10T11:03:15.584Z,101252.22
2023-05-10T11:05:58.809Z,101253.22
2023-05-10T11:08:30.204Z,101255.00
2023-05-10T11:10:59.471Z,101259.63
2023-05-10T11:13:51.534Z,101264.09
2023-05-10T11:16:30.165Z,101262.81
2023-05-10T11:19:14.862Z,101267.53
2023-05-10T11:22:06.610Z,101265.91
2023-05-10T11:24:36.720Z,101269.94
2023-05-10T11:27:11.009Z,101262.78
2023-05-10T11:29:37.378Z,101273.16
2023-05-10T11:32:09.981Z,101271.25
2023-05-10T11:34:38.721Z,101266.06
2023-05-10T11:37:05.206Z,101266.44
2023-05-10T11:39:37.518Z,101265.13
2023-05-10T11:42:04.221Z,101264.97
2023-05-10T11:44:46.309Z,101262.88
2023-05-10T11:47:15.054Z,101264.28
2023-05-10T11:49:49.519Z,101258.13
2023-05-10T11:52:18.084Z,101260.56
2023-05-10T11:54:54.912Z,101266.91
2023-05-10T11:57:26.551Z,101263.50
2023-05-10T11:59:57.539Z,101273.50
2023-05-10T12:05:11.482Z,101275.59
2023-05-10T12:07:40.787Z,101287.59
2023-05-10T12:10:16.211Z,101273.88
2023-05-10T12:12:46.776Z,101290.00
2023-05-10T12:15:23.061Z,101280.84
2023-05-10T12:17:50.585Z,101292.88
2023-05-10T12:20:24.360Z,101284.72
2023-05-10T12:23:00.221Z,101278.88
2023-05-10T12:25:33.610Z,101281.53
2023-05-10T12:28:10.611Z,101271.47
2023-05-10T12:30:45.407Z,101277.97
2023-05-10T12:33:17.985Z,101273.88
2023-05-10T12:35:55.538Z,101271.97
2023-05-10T12:38:39.160Z,101272.59
2023-05-10T12:41:17.839Z,101277.41
2023-05-10T12:43:53.975Z,101271.25
2023-05-10T12:46:20.525Z,101277.53
2023-05-10T12:48:48.324Z,101269.91
2023-05-10T12:51:22.294Z,101271.63
2023-05-10T12:53:49.709Z,101280.19
2023-05-10T12:56:19.548Z,101280.56
2023-05-10T12:58:49.363Z,101280.38
2023-05-10T13:04:04.891Z,101284.75
2023-05-10T13:06:31.723Z,101284.13
2023-05-10T13:09:00.749Z,101290.72
2023-05-10T13:11:37.301Z,101291.56
2023-05-10T13:14:05.272Z,101290.38
2023-05-10T13:16:40.089Z,101293.09
2023-05-10T13:21:53.626Z,101319.72
2023-05-10T13:24:23.202Z,101312.81
2023-05-10T13:26:50.523Z,101328.09
2023-05-10T13:29:27.250Z,101329.69
2023-05-10T13:34:36.595Z,101326.66
2023-05-10T13:37:02.965Z,101336.31
2023-05-10T13:39:34.130Z,101336.59
2023-05-10T13:42:06.540Z,101341.47
2023-05-10T13:44:34.605Z,101345.81
2023-05-10T13:47:07.407Z,101353.28
2023-05-10T13:49:36.947Z,101360.34
2023-05-10T13:52:09.970Z,101361.41
2023-05-10T13:54:39.373Z,101362.25
2023-05-10T13:57:05.823Z,101353.25
2023-05-10T13:59:35.377Z,101359.56
2023-05-10T14:02:03.471Z,101359.75
2023-05-10T14:04:38.265Z,101361.41
2023-05-10T14:07:04.606Z,101358.09
2023-05-10T14:09:31.342Z,101357.94
2023-05-10T14:12:11.014Z,101361.56
2023-05-10T14:14:41.551Z,101361.41
2023-05-10T14:17:12.399Z,101356.66
2023-05-10T14:19:46.457Z,101363.75
2023-05-10T14:22:12.783Z,101369.03
2023-05-10T14:24:39.167Z,101364.22
2023-05-10T14:27:16.138Z,101363.38
2023-05-10T14:29:42.953Z,101369.31
2023-05-10T14:32:33.881Z,101365.31
2023-05-10T14:35:07.219Z,101364.16
2023-05-10T14:37:40.437Z,101367.78
2023-05-10T14:40:31.753Z,101365.63
2023-05-10T14:45:40.315Z,101361.47
2023-05-10T14:48:13.133Z,101360.28
2023-05-10T14:50:52.570Z,101361.22
2023-05-10T14:53:22.903Z,101355.94
2023-05-10T14:55:55.800Z,101354.41
2023-05-10T14:58:34.600Z,101353.34
2023-05-10T15:01:05.017Z,101358.81
2023-05-10T15:03:38.465Z,101356.63
2023-05-10T15:06:30.231Z,101363.00
2023-05-10T15:08:59.570Z,101362.63
2023-05-10T15:11:28.305Z,101358.28
2023-05-10T15:14:00.309Z,101353.56
2023-05-10T15:16:49.625Z,101352.56
2023-05-10T15:19:19.051Z,101354.75
2023-05-10T15:21:51.495Z,101352.84
2023-05-10T15:27:12.650Z,101352.09
2023-05-10T15:29:49.681Z,101356.81
2023-05-10T15:32:34.839Z,101357.25
2023-05-10T15:35:03.980Z,101351.25
2023-05-10T15:37:32.765Z,101350.66
2023-05-10T15:42:48.472Z,101351.22
2023-05-10T15:45:19.657Z,101356.09
2023-05-10T15:47:53.680Z,101359.13
2023-05-10T15:50:23.197Z,101362.00
2023-05-10T15:52:49.842Z,101358.47
2023-05-10T15:55:17.448Z,101357.56
2023-05-10T15:57:48.707Z,101367.94
2023-05-10T16:00:20.257Z,101370.41
2023-05-10T16:02:52.158Z,101369.69
2023-05-10T16:05:30.044Z,101367.88
2023-05-10T16:07:56.415Z,101377.84
2023-05-10T16:10:33.438Z,101375.56
2023-05-10T16:13:00.472Z,101369.44
2023-05-10T16:15:35.016Z,101381.25
2023-05-10T16:18:01.436Z,101374.44
2023-05-10T16:20:30.455Z,101376.13
2023-05-10T16:23:00.536Z,101375.06
2023-05-10T16:25:26.893Z,101379.94
2023-05-10T16:28:02.932Z,101379.28
2023-05-10T16:30:30.573Z,101380.72
2023-05-10T16:33:02.091Z,101381.09
2023-05-10T16:35:32.267Z,101384.72
2023-05-10T16:38:01.746Z,101391.13
2023-05-10T16:40:31.370Z,101381.91
2023-05-10T16:42:58.051Z,101391.59
2023-05-10T16:45:33.937Z,101393.22
2023-05-10T16:48:00.341Z,101389.16
2023-05-10T16:50:30.979Z,101392.06
2023-05-10T16:52:57.439Z,101394.53
2023-05-10T16:55:26.194Z,101384.00
2023-05-10T16:58:02.890Z,101391.56
2023-05-10T17:00:32.809Z,101388.75
2023-05-10T17:03:01.930Z,101386.72
2023-05-10T17:05:29.455Z,101388.81
2023-05-10T17:07:58.346Z,101391.13
2023-05-10T17:10:27.874Z,101394.47
2023-05-10T17:12:54.202Z,101384.22
2023-05-10T17:15:25.775Z,101393.53
2023-05-10T17:17:56.303Z,101402.06
2023-05-10T17:20:36.151Z,101404.63
2023-05-10T17:23:08.734Z,101408.78
2023-05-10T17:25:38.274Z,101415.31
2023-05-10T17:30:51.349Z,101411.25
2023-05-10T17:33:20.774Z,101412.00
2023-05-10T17:35:47.222Z,101416.16
2023-05-10T17:38:13.574Z,101418.06
2023-05-10T17:40:45.999Z,101418.06
2023-05-10T17:43:12.534Z,101422.78
2023-05-10T17:45:41.701Z,101425.16
2023-05-10T17:48:11.521Z,101425.91
2023-05-10T17:50:44.655Z,101427.75
2023-05-10T17:53:13.795Z,101433.19
2023-05-10T17:55:44.411Z,101433.50
2023-05-10T17:58:15.731Z,101442.22
2023-05-10T18:00:44.344Z,101438.19
2023-05-10T18:03:15.955Z,101436.22
2023-05-10T18:05:42.409Z,101440.28
2023-05-10T18:08:10.244Z,101449.16
2023-05-10T18:10:38.836Z,101440.66
2023-05-10T18:13:08.648Z,101447.69
2023-05-10T18:15:38.822Z,101443.63
2023-05-10T18:18:06.142Z,101438.88
2023-05-10T18:20:32.938Z,101441.91
2023-05-10T18:22:59.874Z,101452.03
2023-05-10T18:25:33.863Z,101449.84
2023-05-10T18:30:42.002Z,101446.78
2023-05-10T18:33:14.491Z,101442.28
2023-05-10T18:35:40.934Z,101440.94
2023-05-10T18:38:09.679Z,101443.81
2023-05-10T18:40:41.877Z,101448.69
2023-05-10T18:45:51.735Z,101452.13
2023-05-10T18:48:18.214Z,101456.69
2023-05-10T18:50:44.700Z,101458.06
2023-05-10T18:53:11.058Z,101467.53
2023-05-10T18:55:40.442Z,101467.63
2023-05-10T18:58:09.998Z,101463.97
2023-05-10T19:00:36.396Z,101471.31
2023-05-10T19:03:11.990Z,101473.41
2023-05-10T19:05:38.379Z,101470.53
2023-05-10T19:08:08.326Z,101472.09
2023-05-10T19:10:37.831Z,101468.97
2023-05-10T19:13:04.154Z,101471.72
2023-05-10T19:15:33.414Z,101486.00
2023-05-10T19:18:04.017Z,101479.41
2023-05-10T19:20:33.775Z,101483.69
2023-05-10T19:28:21.957Z,101495.03
2023-05-10T19:30:50.183Z,101488.63
2023-05-10T19:33:23.218Z,101486.34
2023-05-10T19:35:53.420Z,101487.66
2023-05-10T19:38:22.097Z,101492.59
2023-05-10T19:40:56.957Z,101495.41
2023-05-10T19:43:38.225Z,101507.63
2023-05-10T19:46:18.659Z,101505.78
2023-05-10T19:48:52.666Z,101502.34
2023-05-10T19:51:22.197Z,101505.34
2023-05-10T19:53:52.819Z,101500.09
2023-05-10T19:56:23.002Z,101499.78
2023-05-10T19:58:49.395Z,101506.19
2023-05-10T20:01:17.692Z,101511.81
2023-05-10T20:03:47.551Z,101513.16
2023-05-10T20:06:14.065Z,101520.25
2023-05-10T20:08:50.058Z,101521.75
2023-05-10T20:11:16.572Z,101513.34
2023-05-10T20:13:42.916Z,101515.84
2023-05-10T20:16:09.308Z,101513.53
2023-05-10T20:18:37.149Z,101510.25
2023-05-10T20:21:07.354Z,101511.91
2023-05-10T20:23:33.816Z,101514.53
2023-05-10T20:26:04.192Z,101523.44
2023-05-10T20:28:36.487Z,101517.53
2023-05-10T20:31:03.341Z,101521.97
2023-05-10T20:33:32.567Z,101519.66
2023-05-10T20:36:05.500Z,101517.38
2023-05-10T20:38:31.897Z,101519.50
2023-05-10T20:40:59.786Z,101524.13
2023-05-10T20:43:29.289Z,101522.31
2023-05-10T20:45:56.157Z,101523.97
2023-05-10T20:48:27.549Z,101532.53
2023-05-10T20:50:53.926Z,101528.91
2023-05-10T20:53:20.315Z,101521.97
2023-05-10T20:56:00.072Z,101525.09
2023-05-10T20:58:30.283Z,101530.88
2023-05-10T21:01:00.250Z,101525.25
2023-05-10T21:03:26.659Z,101534.81
2023-05-10T21:05:55.658Z,101524.59
2023-05-10T21:08:24.786Z,101529.88
2023-05-10T21:10:51.185Z,101532.16
2023-05-10T21:13:21.096Z,101527.72
2023-05-10T21:15:50.791Z,101521.63
2023-05-10T21:18:20.354Z,101529.38
2023-05-10T21:20:46.848Z,101524.59
2023-05-10T21:23:17.420Z,101530.38
2023-05-10T21:25:49.708Z,101527.91
2023-05-10T21:28:16.278Z,101526.41
2023-05-10T21:30:42.620Z,101521.47
2023-05-10T21:33:09.339Z,101519.66
2023-05-10T21:35:43.184Z,101515.38
2023-05-10T21:40:58.002Z,101516.06
2023-05-10T21:43:24.421Z,101509.97
2023-05-10T21:45:50.838Z,101511.09
2023-05-10T21:48:25.754Z,101507.00
2023-05-10T21:50:52.245Z,101511.25
2023-05-10T21:53:22.543Z,101513.91
2023-05-10T21:55:52.091Z,101515.91
2023-05-10T21:58:20.938Z,101509.97
2023-05-10T22:00:57.580Z,101507.66
2023-05-10T22:03:26.031Z,101511.63
2023-05-10T22:05:52.967Z,101508.19
2023-05-10T22:08:24.097Z,101514.59
2023-05-10T22:10:53.297Z,101516.91
2023-05-10T22:13:23.712Z,101523.81
2023-05-10T22:19:04.492Z,101533.03
2023-05-10T22:21:38.055Z,101531.22
2023-05-10T22:24:08.121Z,101533.53
2023-05-10T22:26:35.157Z,101524.66
2023-05-10T22:29:05.506Z,101528.44
2023-05-10T22:31:31.984Z,101522.31
2023-05-10T22:33:58.532Z,101531.06
2023-05-10T22:36:24.941Z,101526.13
2023-05-10T22:38:51.399Z,101530.06
2023-05-10T22:41:17.776Z,101529.44
2023-05-10T22:43:46.993Z,101526.28
2023-05-10T22:46:18.585Z,101530.72
2023-05-10T22:48:45.053Z,101536.00
2023-05-10T22:51:13.001Z,101526.78
2023-05-10T22:53:39.642Z,101528.59
2023-05-10T22:56:06.260Z,101534.53
2023-05-10T22:58:33.380Z,101533.53
2023-05-10T23:01:03.044Z,101536.34
2023-05-10T23:03:29.901Z,101527.47
2023-05-10T23:05:56.387Z,101538.34
2023-05-10T23:08:25.933Z,101542.09
2023-05-10T23:10:55.488Z,101537.84
2023-05-10T23:13:22.347Z,101539.94
2023-05-10T23:15:49.621Z,101547.34
2023-05-10T23:18:18.857Z,101542.06
2023-05-10T23:20:45.385Z,101539.59
2023-05-10T23:25:57.376Z,101549.81
2023-05-10T23:28:23.829Z,101550.13
2023-05-10T23:31:05.687Z,101551.13
2023-05-10T23:33:32.197Z,101556.72
2023-05-10T23:36:03.223Z,101552.28
2023-05-10T23:38:29.735Z,101554.75
2023-05-10T23:40:56.123Z,101550.13
2023-05-10T23:43:28.419Z,101551.97
2023-05-10T23:45:59.589Z,101552.28
2023-05-10T23:48:29.594Z,101553.09
2023-05-10T23:50:58.943Z,101543.41
2023-05-10T23:53:26.253Z,101549.81
2023-05-10T23:56:02.827Z,101551.97
